sensor_id;sensor_type;location;lat;lon;timestamp;P1;durP1;ratioP1;P2;durP2;ratioP2
61938;SDS011;47897;50.322;18.892;2022-08-27T00:00:47;24.30;;;16.00;;
61938;SDS011;47897;50.322;18.892;2022-08-27T00:03:15;23.40;;;16.80;;
61938;SDS011;47897;50.322;18.892;2022-08-27T00:05:43;25.40;;;16.30;;
61938;SDS011;47897;50.322;18.892;2022-08-27T00:08:14;24.90;;;16.20;;
61938;SDS011;47897;50.322;18.892;2022-08-27T00:10:46;27.30;;;16.60;;
61938;SDS011;47897;50.322;18.892;2022-08-27T00:13:13;28.10;;;16.50;;
61938;SDS011;47897;50.322;18.892;2022-08-27T00:15:41;24.80;;;16.50;;
61938;SDS011;47897;50.322;18.892;2022-08-27T00:18:08;27.60;;;17.30;;
61938;SDS011;47897;50.322;18.892;2022-08-27T00:20:35;25.10;;;15.40;;
61938;SDS011;47897;50.322;18.892;2022-08-27T00:23:02;24.90;;;16.30;;
61938;SDS011;47897;50.322;18.892;2022-08-27T00:25:29;22.90;;;15.20;;
61938;SDS011;47897;50.322;18.892;2022-08-27T00:27:56;22.50;;;15.00;;
61938;SDS011;47897;50.322;18.892;2022-08-27T00:30:23;23.20;;;15.70;;
61938;SDS011;47897;50.322;18.892;2022-08-27T00:32:50;24.30;;;14.90;;
61938;SDS011;47897;50.322;18.892;2022-08-27T00:35:17;23.10;;;14.00;;
61938;SDS011;47897;50.322;18.892;2022-08-27T00:37:44;22.30;;;14.10;;
61938;SDS011;47897;50.322;18.892;2022-08-27T00:40:13;23.20;;;14.50;;
61938;SDS011;47897;50.322;18.892;2022-08-27T00:42:43;21.60;;;12.50;;
61938;SDS011;47897;50.322;18.892;2022-08-27T00:45:16;20.70;;;13.60;;
61938;SDS011;47897;50.322;18.892;2022-08-27T00:47:51;23.80;;;13.60;;
61938;SDS011;47897;50.322;18.892;2022-08-27T00:50:54;19.70;;;14.00;;
61938;SDS011;47897;50.322;18.892;2022-08-27T00:53:18;21.90;;;12.70;;
61938;SDS011;47897;50.322;18.892;2022-08-27T00:55:50;39.20;;;13.90;;
61938;SDS011;47897;50.322;18.892;2022-08-27T00:58:24;23.30;;;14.50;;
61938;SDS011;47897;50.322;18.892;2022-08-27T01:00:54;20.40;;;14.70;;
61938;SDS011;47897;50.322;18.892;2022-08-27T01:03:23;24.70;;;14.50;;
61938;SDS011;47897;50.322;18.892;2022-08-27T01:05:54;22.70;;;14.20;;
61938;SDS011;47897;50.322;18.892;2022-08-27T01:08:25;20.90;;;14.20;;
61938;SDS011;47897;50.322;18.892;2022-08-27T01:10:54;23.50;;;14.10;;
61938;SDS011;47897;50.322;18.892;2022-08-27T01:13:24;23.50;;;15.30;;
61938;SDS011;47897;50.322;18.892;2022-08-27T01:15:57;26.20;;;14.40;;
61938;SDS011;47897;50.322;18.892;2022-08-27T01:18:28;22.80;;;14.40;;
61938;SDS011;47897;50.322;18.892;2022-08-27T01:21:04;20.50;;;13.70;;
61938;SDS011;47897;50.322;18.892;2022-08-27T01:26:19;26.60;;;15.40;;
61938;SDS011;47897;50.322;18.892;2022-08-27T01:28:48;23.00;;;14.60;;
61938;SDS011;47897;50.322;18.892;2022-08-27T01:31:18;21.20;;;14.80;;
61938;SDS011;47897;50.322;18.892;2022-08-27T01:33:59;23.50;;;14.90;;
61938;SDS011;47897;50.322;18.892;2022-08-27T01:36:29;22.70;;;14.40;;
61938;SDS011;47897;50.322;18.892;2022-08-27T01:38:57;22.30;;;15.00;;
61938;SDS011;47897;50.322;18.892;2022-08-27T01:41:24;23.30;;;15.00;;
61938;SDS011;47897;50.322;18.892;2022-08-27T01:43:52;20.40;;;14.40;;
61938;SDS011;47897;50.322;18.892;2022-08-27T01:46:22;23.20;;;15.00;;
61938;SDS011;47897;50.322;18.892;2022-08-27T01:48:51;22.60;;;14.20;;
61938;SDS011;47897;50.322;18.892;2022-08-27T01:51:18;22.10;;;15.40;;
61938;SDS011;47897;50.322;18.892;2022-08-27T01:53:45;21.80;;;14.40;;
61938;SDS011;47897;50.322;18.892;2022-08-27T01:56:12;27.40;;;15.80;;
61938;SDS011;47897;50.322;18.892;2022-08-27T01:58:40;22.30;;;15.60;;
61938;SDS011;47897;50.322;18.892;2022-08-27T02:01:10;23.10;;;15.10;;
61938;SDS011;47897;50.322;18.892;2022-08-27T02:03:42;27.30;;;14.90;;
61938;SDS011;47897;50.322;18.892;2022-08-27T02:06:10;24.60;;;16.30;;
61938;SDS011;47897;50.322;18.892;2022-08-27T02:08:38;23.30;;;15.50;;
61938;SDS011;47897;50.322;18.892;2022-08-27T02:11:06;25.60;;;15.40;;
61938;SDS011;47897;50.322;18.892;2022-08-27T02:13:33;22.20;;;15.30;;
61938;SDS011;47897;50.322;18.892;2022-08-27T02:16:01;21.60;;;14.30;;
61938;SDS011;47897;50.322;18.892;2022-08-27T02:18:29;21.20;;;15.10;;
61938;SDS011;47897;50.322;18.892;2022-08-27T02:20:56;27.60;;;15.30;;
61938;SDS011;47897;50.322;18.892;2022-08-27T02:23:23;26.00;;;15.30;;
61938;SDS011;47897;50.322;18.892;2022-08-27T02:25:50;20.50;;;15.00;;
61938;SDS011;47897;50.322;18.892;2022-08-27T02:28:17;23.90;;;15.70;;
61938;SDS011;47897;50.322;18.892;2022-08-27T02:30:44;23.40;;;14.30;;
61938;SDS011;47897;50.322;18.892;2022-08-27T02:33:11;22.10;;;14.50;;
61938;SDS011;47897;50.322;18.892;2022-08-27T02:35:39;22.90;;;15.20;;
61938;SDS011;47897;50.322;18.892;2022-08-27T02:38:10;27.50;;;15.80;;
61938;SDS011;47897;50.322;18.892;2022-08-27T02:40:38;23.20;;;14.20;;
61938;SDS011;47897;50.322;18.892;2022-08-27T02:43:05;22.60;;;15.30;;
61938;SDS011;47897;50.322;18.892;2022-08-27T02:45:33;28.90;;;14.90;;
61938;SDS011;47897;50.322;18.892;2022-08-27T02:48:03;22.90;;;14.80;;
61938;SDS011;47897;50.322;18.892;2022-08-27T02:50:31;22.20;;;14.30;;
61938;SDS011;47897;50.322;18.892;2022-08-27T02:52:59;21.50;;;13.90;;
61938;SDS011;47897;50.322;18.892;2022-08-27T02:55:28;21.20;;;14.40;;
61938;SDS011;47897;50.322;18.892;2022-08-27T02:57:55;21.70;;;14.40;;
61938;SDS011;47897;50.322;18.892;2022-08-27T03:00:23;21.90;;;14.20;;
61938;SDS011;47897;50.322;18.892;2022-08-27T03:02:51;22.90;;;14.20;;
61938;SDS011;47897;50.322;18.892;2022-08-27T03:05:18;24.30;;;15.10;;
61938;SDS011;47897;50.322;18.892;2022-08-27T03:07:46;25.90;;;14.80;;
61938;SDS011;47897;50.322;18.892;2022-08-27T03:10:16;23.00;;;15.70;;
61938;SDS011;47897;50.322;18.892;2022-08-27T03:12:44;24.30;;;15.50;;
61938;SDS011;47897;50.322;18.892;2022-08-27T03:15:12;23.10;;;15.30;;
61938;SDS011;47897;50.322;18.892;2022-08-27T03:17:41;25.00;;;15.30;;
61938;SDS011;47897;50.322;18.892;2022-08-27T03:20:27;22.30;;;15.90;;
61938;SDS011;47897;50.322;18.892;2022-08-27T03:22:55;22.20;;;14.90;;
61938;SDS011;47897;50.322;18.892;2022-08-27T03:25:22;22.20;;;15.10;;
61938;SDS011;47897;50.322;18.892;2022-08-27T03:27:49;24.10;;;15.30;;
61938;SDS011;47897;50.322;18.892;2022-08-27T03:30:17;24.10;;;15.80;;
61938;SDS011;47897;50.322;18.892;2022-08-27T03:32:46;26.40;;;15.60;;
61938;SDS011;47897;50.322;18.892;2022-08-27T03:35:13;26.40;;;16.20;;
61938;SDS011;47897;50.322;18.892;2022-08-27T03:37:41;25.00;;;15.30;;
61938;SDS011;47897;50.322;18.892;2022-08-27T03:40:08;28.80;;;15.50;;
61938;SDS011;47897;50.322;18.892;2022-08-27T03:42:36;26.90;;;15.00;;
61938;SDS011;47897;50.322;18.892;2022-08-27T03:45:04;25.80;;;15.60;;
61938;SDS011;47897;50.322;18.892;2022-08-27T03:47:32;26.10;;;16.50;;
61938;SDS011;47897;50.322;18.892;2022-08-27T03:50:00;23.20;;;15.60;;
61938;SDS011;47897;50.322;18.892;2022-08-27T03:52:27;24.40;;;16.00;;
61938;SDS011;47897;50.322;18.892;2022-08-27T03:54:55;26.30;;;15.80;;
61938;SDS011;47897;50.322;18.892;2022-08-27T03:57:24;23.10;;;15.20;;
61938;SDS011;47897;50.322;18.892;2022-08-27T03:59:51;27.80;;;15.80;;
61938;SDS011;47897;50.322;18.892;2022-08-27T04:02:18;24.50;;;16.10;;
61938;SDS011;47897;50.322;18.892;2022-08-27T04:04:45;26.20;;;15.80;;
61938;SDS011;47897;50.322;18.892;2022-08-27T04:07:12;24.20;;;14.90;;
61938;SDS011;47897;50.322;18.892;2022-08-27T04:09:39;22.50;;;15.10;;
61938;SDS011;47897;50.322;18.892;2022-08-27T04:12:06;27.00;;;16.70;;
61938;SDS011;47897;50.322;18.892;2022-08-27T04:14:34;27.70;;;17.50;;
61938;SDS011;47897;50.322;18.892;2022-08-27T04:17:01;25.50;;;16.90;;
61938;SDS011;47897;50.322;18.892;2022-08-27T04:19:28;25.50;;;16.40;;
61938;SDS011;47897;50.322;18.892;2022-08-27T04:21:59;25.90;;;15.80;;
61938;SDS011;47897;50.322;18.892;2022-08-27T04:24:28;31.20;;;17.30;;
61938;SDS011;47897;50.322;18.892;2022-08-27T04:26:57;24.80;;;16.00;;
61938;SDS011;47897;50.322;18.892;2022-08-27T04:29:25;27.70;;;16.60;;
61938;SDS011;47897;50.322;18.892;2022-08-27T04:31:52;30.30;;;18.00;;
61938;SDS011;47897;50.322;18.892;2022-08-27T04:34:20;27.70;;;17.30;;
61938;SDS011;47897;50.322;18.892;2022-08-27T04:36:47;28.50;;;16.90;;
61938;SDS011;47897;50.322;18.892;2022-08-27T04:39:15;30.80;;;16.70;;
61938;SDS011;47897;50.322;18.892;2022-08-27T04:41:43;28.00;;;18.30;;
61938;SDS011;47897;50.322;18.892;2022-08-27T04:44:09;27.40;;;16.30;;
61938;SDS011;47897;50.322;18.892;2022-08-27T04:46:37;31.20;;;18.10;;
61938;SDS011;47897;50.322;18.892;2022-08-27T04:49:07;36.60;;;17.20;;
61938;SDS011;47897;50.322;18.892;2022-08-27T04:51:39;34.10;;;17.80;;
61938;SDS011;47897;50.322;18.892;2022-08-27T04:54:07;30.30;;;17.50;;
61938;SDS011;47897;50.322;18.892;2022-08-27T04:56:35;29.70;;;18.40;;
61938;SDS011;47897;50.322;18.892;2022-08-27T04:59:03;29.00;;;17.40;;
61938;SDS011;47897;50.322;18.892;2022-08-27T05:01:32;31.10;;;19.00;;
61938;SDS011;47897;50.322;18.892;2022-08-27T05:03:59;30.30;;;18.60;;
61938;SDS011;47897;50.322;18.892;2022-08-27T05:06:26;40.20;;;22.70;;
61938;SDS011;47897;50.322;18.892;2022-08-27T05:08:54;42.60;;;22.40;;
61938;SDS011;47897;50.322;18.892;2022-08-27T05:11:22;38.50;;;22.00;;
61938;SDS011;47897;50.322;18.892;2022-08-27T05:13:51;42.10;;;20.00;;
61938;SDS011;47897;50.322;18.892;2022-08-27T05:16:20;34.60;;;18.90;;
61938;SDS011;47897;50.322;18.892;2022-08-27T05:18:49;39.60;;;19.00;;
61938;SDS011;47897;50.322;18.892;2022-08-27T05:21:22;32.50;;;18.80;;
61938;SDS011;47897;50.322;18.892;2022-08-27T05:23:54;36.10;;;20.00;;
61938;SDS011;47897;50.322;18.892;2022-08-27T05:26:22;38.70;;;20.10;;
61938;SDS011;47897;50.322;18.892;2022-08-27T05:28:49;39.50;;;19.80;;
61938;SDS011;47897;50.322;18.892;2022-08-27T05:31:17;36.10;;;21.50;;
61938;SDS011;47897;50.322;18.892;2022-08-27T05:33:45;36.20;;;21.20;;
61938;SDS011;47897;50.322;18.892;2022-08-27T05:36:14;33.40;;;20.20;;
61938;SDS011;47897;50.322;18.892;2022-08-27T05:38:43;37.60;;;20.40;;
61938;SDS011;47897;50.322;18.892;2022-08-27T05:41:12;37.40;;;21.10;;
61938;SDS011;47897;50.322;18.892;2022-08-27T05:43:40;38.20;;;20.20;;
61938;SDS011;47897;50.322;18.892;2022-08-27T05:46:11;35.20;;;21.50;;
61938;SDS011;47897;50.322;18.892;2022-08-27T05:48:39;40.80;;;21.30;;
61938;SDS011;47897;50.322;18.892;2022-08-27T05:51:12;40.30;;;20.80;;
61938;SDS011;47897;50.322;18.892;2022-08-27T05:53:44;39.00;;;20.60;;
61938;SDS011;47897;50.322;18.892;2022-08-27T05:56:14;30.70;;;18.40;;
61938;SDS011;47897;50.322;18.892;2022-08-27T05:58:47;28.70;;;16.70;;
61938;SDS011;47897;50.322;18.892;2022-08-27T06:01:35;29.80;;;18.30;;
61938;SDS011;47897;50.322;18.892;2022-08-27T06:04:05;27.70;;;15.40;;
61938;SDS011;47897;50.322;18.892;2022-08-27T06:06:33;29.80;;;14.90;;
61938;SDS011;47897;50.322;18.892;2022-08-27T06:09:02;30.60;;;15.60;;
61938;SDS011;47897;50.322;18.892;2022-08-27T06:11:30;27.50;;;15.90;;
61938;SDS011;47897;50.322;18.892;2022-08-27T06:13:57;32.20;;;17.20;;
61938;SDS011;47897;50.322;18.892;2022-08-27T06:16:24;26.70;;;16.50;;
61938;SDS011;47897;50.322;18.892;2022-08-27T06:18:51;31.80;;;17.60;;
61938;SDS011;47897;50.322;18.892;2022-08-27T06:21:19;26.70;;;15.70;;
61938;SDS011;47897;50.322;18.892;2022-08-27T06:23:47;28.70;;;16.90;;
61938;SDS011;47897;50.322;18.892;2022-08-27T06:26:16;25.70;;;15.50;;
61938;SDS011;47897;50.322;18.892;2022-08-27T06:28:45;34.20;;;17.70;;
61938;SDS011;47897;50.322;18.892;2022-08-27T06:31:14;30.00;;;16.50;;
61938;SDS011;47897;50.322;18.892;2022-08-27T06:33:42;28.50;;;16.10;;
61938;SDS011;47897;50.322;18.892;2022-08-27T06:36:12;26.00;;;15.90;;
61938;SDS011;47897;50.322;18.892;2022-08-27T06:38:41;23.20;;;16.10;;
61938;SDS011;47897;50.322;18.892;2022-08-27T06:41:09;28.90;;;16.20;;
61938;SDS011;47897;50.322;18.892;2022-08-27T06:43:38;25.80;;;16.10;;
61938;SDS011;47897;50.322;18.892;2022-08-27T06:46:07;25.70;;;15.00;;
61938;SDS011;47897;50.322;18.892;2022-08-27T06:48:36;25.30;;;15.90;;
61938;SDS011;47897;50.322;18.892;2022-08-27T06:51:11;21.40;;;14.40;;
61938;SDS011;47897;50.322;18.892;2022-08-27T06:53:43;28.00;;;15.70;;
61938;SDS011;47897;50.322;18.892;2022-08-27T06:56:13;22.70;;;15.30;;
61938;SDS011;47897;50.322;18.892;2022-08-27T06:58:42;25.40;;;14.30;;
61938;SDS011;47897;50.322;18.892;2022-08-27T07:01:10;25.90;;;14.90;;
61938;SDS011;47897;50.322;18.892;2022-08-27T07:03:39;26.30;;;15.40;;
61938;SDS011;47897;50.322;18.892;2022-08-27T07:06:07;21.80;;;14.30;;
61938;SDS011;47897;50.322;18.892;2022-08-27T07:08:34;25.20;;;14.80;;
61938;SDS011;47897;50.322;18.892;2022-08-27T07:11:03;20.90;;;13.30;;
61938;SDS011;47897;50.322;18.892;2022-08-27T07:13:30;26.60;;;14.50;;
61938;SDS011;47897;50.322;18.892;2022-08-27T07:15:57;26.80;;;14.90;;
61938;SDS011;47897;50.322;18.892;2022-08-27T07:18:24;24.10;;;13.80;;
61938;SDS011;47897;50.322;18.892;2022-08-27T07:20:51;21.30;;;14.60;;
61938;SDS011;47897;50.322;18.892;2022-08-27T07:23:19;21.30;;;15.20;;
61938;SDS011;47897;50.322;18.892;2022-08-27T07:25:47;25.10;;;13.80;;
61938;SDS011;47897;50.322;18.892;2022-08-27T07:28:14;33.90;;;15.10;;
61938;SDS011;47897;50.322;18.892;2022-08-27T07:30:41;54.30;;;17.70;;
61938;SDS011;47897;50.322;18.892;2022-08-27T07:33:08;28.20;;;14.80;;
61938;SDS011;47897;50.322;18.892;2022-08-27T07:35:35;24.20;;;13.80;;
61938;SDS011;47897;50.322;18.892;2022-08-27T07:38:02;24.40;;;14.30;;
61938;SDS011;47897;50.322;18.892;2022-08-27T07:40:29;22.20;;;15.40;;
61938;SDS011;47897;50.322;18.892;2022-08-27T07:42:56;22.80;;;13.80;;
61938;SDS011;47897;50.322;18.892;2022-08-27T07:45:43;22.40;;;14.20;;
61938;SDS011;47897;50.322;18.892;2022-08-27T07:48:13;27.70;;;15.50;;
61938;SDS011;47897;50.322;18.892;2022-08-27T07:50:41;25.70;;;15.80;;
61938;SDS011;47897;50.322;18.892;2022-08-27T07:53:09;25.30;;;14.80;;
61938;SDS011;47897;50.322;18.892;2022-08-27T07:55:36;24.10;;;14.80;;
61938;SDS011;47897;50.322;18.892;2022-08-27T07:58:04;24.20;;;14.80;;
61938;SDS011;47897;50.322;18.892;2022-08-27T08:00:31;26.90;;;14.90;;
61938;SDS011;47897;50.322;18.892;2022-08-27T08:02:59;29.00;;;14.90;;
61938;SDS011;47897;50.322;18.892;2022-08-27T08:05:27;24.30;;;15.30;;
61938;SDS011;47897;50.322;18.892;2022-08-27T08:07:54;24.80;;;15.00;;
61938;SDS011;47897;50.322;18.892;2022-08-27T08:10:21;27.40;;;15.60;;
61938;SDS011;47897;50.322;18.892;2022-08-27T08:12:49;27.90;;;16.80;;
61938;SDS011;47897;50.322;18.892;2022-08-27T08:15:17;27.80;;;16.90;;
61938;SDS011;47897;50.322;18.892;2022-08-27T08:17:45;27.60;;;17.50;;
61938;SDS011;47897;50.322;18.892;2022-08-27T08:20:12;34.50;;;18.40;;
61938;SDS011;47897;50.322;18.892;2022-08-27T08:22:41;32.20;;;19.80;;
61938;SDS011;47897;50.322;18.892;2022-08-27T08:25:08;32.70;;;20.20;;
61938;SDS011;47897;50.322;18.892;2022-08-27T08:27:35;37.30;;;19.90;;
61938;SDS011;47897;50.322;18.892;2022-08-27T08:30:02;34.90;;;18.30;;
61938;SDS011;47897;50.322;18.892;2022-08-27T08:32:29;33.70;;;18.70;;
61938;SDS011;47897;50.322;18.892;2022-08-27T08:34:56;28.40;;;18.50;;
61938;SDS011;47897;50.322;18.892;2022-08-27T08:37:25;32.60;;;18.30;;
61938;SDS011;47897;50.322;18.892;2022-08-27T08:39:53;32.30;;;18.70;;
61938;SDS011;47897;50.322;18.892;2022-08-27T08:45:23;29.40;;;19.50;;
61938;SDS011;47897;50.322;18.892;2022-08-27T08:48:15;25.40;;;18.20;;
61938;SDS011;47897;50.322;18.892;2022-08-27T08:59:27;32.80;;;20.10;;
61938;SDS011;47897;50.322;18.892;2022-08-27T09:01:59;32.40;;;18.50;;
61938;SDS011;47897;50.322;18.892;2022-08-27T09:04:26;27.70;;;18.30;;
61938;SDS011;47897;50.322;18.892;2022-08-27T09:07:39;27.00;;;19.20;;
61938;SDS011;47897;50.322;18.892;2022-08-27T09:09:58;27.00;;;19.00;;
61938;SDS011;47897;50.322;18.892;2022-08-27T09:12:27;27.30;;;18.20;;
61938;SDS011;47897;50.322;18.892;2022-08-27T09:15:00;28.70;;;18.10;;
61938;SDS011;47897;50.322;18.892;2022-08-27T09:17:32;26.80;;;17.90;;
61938;SDS011;47897;50.322;18.892;2022-08-27T09:20:00;28.30;;;18.10;;
61938;SDS011;47897;50.322;18.892;2022-08-27T09:25:25;27.00;;;19.00;;
61938;SDS011;47897;50.322;18.892;2022-08-27T09:27:59;36.60;;;20.80;;
61938;SDS011;47897;50.322;18.892;2022-08-27T09:30:53;30.40;;;21.10;;
61938;SDS011;47897;50.322;18.892;2022-08-27T09:33:22;30.90;;;22.20;;
61938;SDS011;47897;50.322;18.892;2022-08-27T09:35:49;30.70;;;20.50;;
61938;SDS011;47897;50.322;18.892;2022-08-27T09:38:27;32.30;;;21.30;;
61938;SDS011;47897;50.322;18.892;2022-08-27T09:41:01;29.60;;;19.90;;
61938;SDS011;47897;50.322;18.892;2022-08-27T09:43:32;28.10;;;18.40;;
61938;SDS011;47897;50.322;18.892;2022-08-27T09:46:01;29.60;;;20.80;;
61938;SDS011;47897;50.322;18.892;2022-08-27T09:48:35;28.40;;;21.00;;
61938;SDS011;47897;50.322;18.892;2022-08-27T09:56:28;30.40;;;20.90;;
61938;SDS011;47897;50.322;18.892;2022-08-27T10:01:31;34.90;;;24.10;;
61938;SDS011;47897;50.322;18.892;2022-08-27T10:04:04;30.40;;;25.20;;
61938;SDS011;47897;50.322;18.892;2022-08-27T10:06:36;33.70;;;24.70;;
61938;SDS011;47897;50.322;18.892;2022-08-27T10:14:42;33.80;;;23.80;;
61938;SDS011;47897;50.322;18.892;2022-08-27T10:20:03;32.20;;;25.50;;
61938;SDS011;47897;50.322;18.892;2022-08-27T10:33:26;29.10;;;22.00;;
61938;SDS011;47897;50.322;18.892;2022-08-27T10:36:17;27.30;;;22.20;;
61938;SDS011;47897;50.322;18.892;2022-08-27T10:42:12;32.90;;;21.50;;
61938;SDS011;47897;50.322;18.892;2022-08-27T10:47:54;36.20;;;24.00;;
61938;SDS011;47897;50.322;18.892;2022-08-27T10:50:34;27.00;;;19.50;;
61938;SDS011;47897;50.322;18.892;2022-08-27T10:53:35;22.60;;;17.00;;
61938;SDS011;47897;50.322;18.892;2022-08-27T10:56:22;24.60;;;16.70;;
61938;SDS011;47897;50.322;18.892;2022-08-27T11:01:48;23.00;;;17.70;;
61938;SDS011;47897;50.322;18.892;2022-08-27T11:04:39;22.70;;;18.50;;
61938;SDS011;47897;50.322;18.892;2022-08-27T11:07:16;32.60;;;19.70;;
61938;SDS011;47897;50.322;18.892;2022-08-27T11:09:51;24.40;;;16.90;;
61938;SDS011;47897;50.322;18.892;2022-08-27T11:12:32;28.10;;;15.10;;
61938;SDS011;47897;50.322;18.892;2022-08-27T11:17:47;28.80;;;18.50;;
61938;SDS011;47897;50.322;18.892;2022-08-27T11:20:28;22.30;;;15.90;;
61938;SDS011;47897;50.322;18.892;2022-08-27T11:23:07;26.90;;;13.60;;
61938;SDS011;47897;50.322;18.892;2022-08-27T11:25:44;22.00;;;13.10;;
61938;SDS011;47897;50.322;18.892;2022-08-27T11:28:12;19.10;;;13.00;;
61938;SDS011;47897;50.322;18.892;2022-08-27T11:30:43;16.10;;;11.80;;
61938;SDS011;47897;50.322;18.892;2022-08-27T11:44:08;17.50;;;11.50;;
61938;SDS011;47897;50.322;18.892;2022-08-27T11:46:48;16.40;;;11.70;;
61938;SDS011;47897;50.322;18.892;2022-08-27T11:49:44;18.00;;;11.50;;
61938;SDS011;47897;50.322;18.892;2022-08-27T11:52:23;15.40;;;10.80;;
61938;SDS011;47897;50.322;18.892;2022-08-27T11:54:55;16.30;;;11.70;;
61938;SDS011;47897;50.322;18.892;2022-08-27T11:57:34;18.60;;;13.60;;
61938;SDS011;47897;50.322;18.892;2022-08-27T12:00:27;16.90;;;12.30;;
61938;SDS011;47897;50.322;18.892;2022-08-27T12:03:00;16.90;;;11.80;;
61938;SDS011;47897;50.322;18.892;2022-08-27T12:08:10;18.40;;;12.20;;
61938;SDS011;47897;50.322;18.892;2022-08-27T12:13:33;22.30;;;13.20;;
61938;SDS011;47897;50.322;18.892;2022-08-27T12:26:53;18.90;;;10.60;;
61938;SDS011;47897;50.322;18.892;2022-08-27T12:31:59;16.10;;;9.70;;
61938;SDS011;47897;50.322;18.892;2022-08-27T12:34:30;13.70;;;8.90;;
61938;SDS011;47897;50.322;18.892;2022-08-27T12:37:09;12.30;;;8.50;;
61938;SDS011;47897;50.322;18.892;2022-08-27T12:39:37;14.20;;;9.80;;
61938;SDS011;47897;50.322;18.892;2022-08-27T12:42:13;13.20;;;10.60;;
61938;SDS011;47897;50.322;18.892;2022-08-27T12:44:44;14.70;;;9.70;;
61938;SDS011;47897;50.322;18.892;2022-08-27T12:47:11;11.40;;;9.10;;
61938;SDS011;47897;50.322;18.892;2022-08-27T12:50:03;16.30;;;11.20;;
61938;SDS011;47897;50.322;18.892;2022-08-27T12:57:48;12.00;;;8.20;;
61938;SDS011;47897;50.322;18.892;2022-08-27T13:00:46;11.60;;;9.10;;
61938;SDS011;47897;50.322;18.892;2022-08-27T13:03:38;16.30;;;9.60;;
61938;SDS011;47897;50.322;18.892;2022-08-27T13:06:18;16.60;;;8.80;;
61938;SDS011;47897;50.322;18.892;2022-08-27T13:08:46;14.70;;;10.20;;
61938;SDS011;47897;50.322;18.892;2022-08-27T13:11:21;14.00;;;9.60;;
61938;SDS011;47897;50.322;18.892;2022-08-27T13:13:51;13.70;;;9.80;;
61938;SDS011;47897;50.322;18.892;2022-08-27T13:16:29;18.60;;;11.10;;
61938;SDS011;47897;50.322;18.892;2022-08-27T13:18:57;17.70;;;10.80;;
61938;SDS011;47897;50.322;18.892;2022-08-27T13:21:29;17.70;;;10.90;;
61938;SDS011;47897;50.322;18.892;2022-08-27T13:24:01;17.60;;;11.20;;
61938;SDS011;47897;50.322;18.892;2022-08-27T13:26:32;14.70;;;9.90;;
61938;SDS011;47897;50.322;18.892;2022-08-27T13:29:06;16.20;;;10.70;;
61938;SDS011;47897;50.322;18.892;2022-08-27T13:31:34;18.00;;;10.40;;
61938;SDS011;47897;50.322;18.892;2022-08-27T13:34:02;14.10;;;8.50;;
61938;SDS011;47897;50.322;18.892;2022-08-27T13:36:36;13.80;;;8.70;;
61938;SDS011;47897;50.322;18.892;2022-08-27T13:39:19;13.80;;;10.00;;
61938;SDS011;47897;50.322;18.892;2022-08-27T13:41:47;16.80;;;9.30;;
61938;SDS011;47897;50.322;18.892;2022-08-27T13:44:19;13.20;;;9.10;;
61938;SDS011;47897;50.322;18.892;2022-08-27T13:46:58;12.40;;;9.70;;
61938;SDS011;47897;50.322;18.892;2022-08-27T13:49:32;14.30;;;10.00;;
61938;SDS011;47897;50.322;18.892;2022-08-27T13:54:34;15.50;;;9.60;;
61938;SDS011;47897;50.322;18.892;2022-08-27T13:57:03;13.30;;;10.00;;
61938;SDS011;47897;50.322;18.892;2022-08-27T13:59:35;12.70;;;9.30;;
61938;SDS011;47897;50.322;18.892;2022-08-27T14:07:12;14.90;;;9.20;;
61938;SDS011;47897;50.322;18.892;2022-08-27T14:09:48;16.40;;;9.30;;
61938;SDS011;47897;50.322;18.892;2022-08-27T14:14:50;12.60;;;8.90;;
61938;SDS011;47897;50.322;18.892;2022-08-27T14:17:21;13.00;;;9.10;;
61938;SDS011;47897;50.322;18.892;2022-08-27T14:19:50;12.30;;;9.00;;
61938;SDS011;47897;50.322;18.892;2022-08-27T14:22:17;12.60;;;8.70;;
61938;SDS011;47897;50.322;18.892;2022-08-27T14:24:46;14.80;;;10.40;;
61938;SDS011;47897;50.322;18.892;2022-08-27T14:27:13;16.30;;;8.90;;
61938;SDS011;47897;50.322;18.892;2022-08-27T14:29:41;13.50;;;8.60;;
61938;SDS011;47897;50.322;18.892;2022-08-27T14:32:09;17.10;;;9.70;;
61938;SDS011;47897;50.322;18.892;2022-08-27T14:34:36;15.30;;;10.30;;
61938;SDS011;47897;50.322;18.892;2022-08-27T14:37:03;22.00;;;11.50;;
61938;SDS011;47897;50.322;18.892;2022-08-27T14:39:31;17.90;;;11.40;;
61938;SDS011;47897;50.322;18.892;2022-08-27T14:41:58;19.40;;;11.20;;
61938;SDS011;47897;50.322;18.892;2022-08-27T14:44:27;14.70;;;10.00;;
61938;SDS011;47897;50.322;18.892;2022-08-27T14:46:54;14.90;;;9.90;;
61938;SDS011;47897;50.322;18.892;2022-08-27T14:49:29;13.10;;;9.60;;
61938;SDS011;47897;50.322;18.892;2022-08-27T14:52:00;13.80;;;9.30;;
61938;SDS011;47897;50.322;18.892;2022-08-27T14:54:29;13.80;;;8.40;;
61938;SDS011;47897;50.322;18.892;2022-08-27T14:56:56;13.10;;;8.50;;
61938;SDS011;47897;50.322;18.892;2022-08-27T14:59:24;16.40;;;10.00;;
61938;SDS011;47897;50.322;18.892;2022-08-27T15:01:52;13.90;;;9.80;;
61938;SDS011;47897;50.322;18.892;2022-08-27T15:04:19;12.90;;;9.60;;
61938;SDS011;47897;50.322;18.892;2022-08-27T15:06:46;15.10;;;9.00;;
61938;SDS011;47897;50.322;18.892;2022-08-27T15:09:13;12.60;;;9.40;;
61938;SDS011;47897;50.322;18.892;2022-08-27T15:11:40;15.00;;;11.30;;
61938;SDS011;47897;50.322;18.892;2022-08-27T15:14:14;15.90;;;10.70;;
61938;SDS011;47897;50.322;18.892;2022-08-27T15:16:44;12.70;;;9.60;;
61938;SDS011;47897;50.322;18.892;2022-08-27T15:19:12;16.50;;;11.10;;
61938;SDS011;47897;50.322;18.892;2022-08-27T15:21:41;13.10;;;9.60;;
61938;SDS011;47897;50.322;18.892;2022-08-27T15:26:45;15.70;;;10.00;;
61938;SDS011;47897;50.322;18.892;2022-08-27T15:29:13;16.90;;;10.50;;
61938;SDS011;47897;50.322;18.892;2022-08-27T15:31:40;14.10;;;11.00;;
61938;SDS011;47897;50.322;18.892;2022-08-27T15:34:08;19.20;;;11.10;;
61938;SDS011;47897;50.322;18.892;2022-08-27T15:36:36;13.70;;;10.20;;
61938;SDS011;47897;50.322;18.892;2022-08-27T15:39:04;15.30;;;10.10;;
61938;SDS011;47897;50.322;18.892;2022-08-27T15:41:31;15.90;;;9.60;;
61938;SDS011;47897;50.322;18.892;2022-08-27T15:43:59;13.50;;;9.60;;
61938;SDS011;47897;50.322;18.892;2022-08-27T15:46:26;16.60;;;10.60;;
61938;SDS011;47897;50.322;18.892;2022-08-27T15:48:53;14.00;;;10.10;;
61938;SDS011;47897;50.322;18.892;2022-08-27T15:51:27;17.80;;;10.40;;
61938;SDS011;47897;50.322;18.892;2022-08-27T15:53:57;16.30;;;11.20;;
61938;SDS011;47897;50.322;18.892;2022-08-27T15:56:25;16.50;;;10.80;;
61938;SDS011;47897;50.322;18.892;2022-08-27T15:58:52;17.80;;;11.70;;
61938;SDS011;47897;50.322;18.892;2022-08-27T16:01:21;18.40;;;11.60;;
61938;SDS011;47897;50.322;18.892;2022-08-27T16:03:52;16.80;;;13.40;;
61938;SDS011;47897;50.322;18.892;2022-08-27T16:06:21;16.40;;;11.80;;
61938;SDS011;47897;50.322;18.892;2022-08-27T16:08:48;13.20;;;10.90;;
61938;SDS011;47897;50.322;18.892;2022-08-27T16:11:15;15.80;;;10.50;;
61938;SDS011;47897;50.322;18.892;2022-08-27T16:13:42;13.80;;;10.00;;